NWS Home NWS Lubbock West Texas Mesonet Latest Conditions as of 1034 AM, Mon Jun 26, 2017

Latest   N   C   S   Daily Sum   3hrΔ   24hrΔ   Soil Data 
Site Map   24hr Precip   72hr Precip   Google Plot


Station Time of Last Temp Dew Pt. RH Wind Direction Wind Speed Wind Gust Max Wind Max Temp Min Temp Max RH Min RH Altimeter 1HR Rain Today's Rain Solar Rad
Abernathy 5ENE  10:30 AM 69 60 76% NE1316 39 mph 13° @ 0105 AM 72 58 98 72 30.24" 0 1.26 246
Aiken 3WSW  10:30 AM 70 62 77% NE1112 45 mph 359° @ 1230 AM 71 59 99 66 30.25" 0 1.13 682
Amarillo 15NNW   10:30 AM 74 59 60% SW1214 32 mph 153° @ 1252 AM 74 58 96 60 30.26" 0 0.01 665
Amarillo 7SSE  10:30 AM 73 56 55% SW1214 38 mph 144° @ 0117 AM 73 57 97 55 30.28" 0 0.27 697
Amarillo 9NNE  10:30 AM 73 59 62% SW89 33 mph 170° @ 0104 AM 73 58 100 60 30.25" 0 0.07 676
Amherst 1NE  10:30 AM 70 60 75% E35 53 mph 344° @ 1220 AM 70 58 100 75 30.25" 0 1.50 646
Andrews 2E  10:30 AM 71 61 73% NW610 37 mph 13° @ 0325 AM 77 61 95 53 30.24" 0 1.48 632
Anton 6SSW  10:30 AM 72 61 70% E35 54 mph 23° @ 0120 AM 74 59 100 67 30.24" 0 1.32 598
Aspermont 3NE  10:30 AM 76 68 77% E24 12 mph 125° @ 0125 AM 76 71 90 71 30.18" 0 0 333
Big Bend NP - Persimmon Gap  10:30 AM 77 64 65% E1317 24 mph 33° @ 0946 AM 82 71 79 43 30.19" 0 0 242
Big Lake 1WNW  10:30 AM 71 66 82% E57 30 mph 13° @ 0654 AM 76 64 95 68 30.18" 0 0.10 465
Bootleg 11WNW  10:30 AM 71 58 62% S1113 27 mph 161° @ 0227 AM 71 54 97 60 30.33" 0 0.04 596
Boys Ranch 1WSW  10:30 AM 73 59 60% W812 32 mph 187° @ 1219 AM 73 59 95 59 30.26" 0 0.02 673
Brownfield 2S  10:30 AM 73 58 61% SE24 66 mph 335° @ 0140 AM 76 60 99 60 30.23" 0 1.21 702
Caprock Canyons State Park  10:30 AM 71 60 68% N712 31 mph 337° @ 0116 AM 71 61 96 64 30.23" 0 1.10 510
Childress 2NNE  10:30 AM 75 61 63% NW913 17 mph 216° @ 0355 AM 75 67 86 63 30.18" 0 0 755
Clarendon 2WSW  10:30 AM 74 57 58% N711 51 mph 205° @ 0330 AM 74 61 92 58 30.23" 0 0.23 666
Claude 12SW  10:30 AM 71 58 62% W67 44 mph 146° @ 0234 AM 71 58 99 62 30.26" 0 0.46 716
Clyde 2WNW  10:30 AM 77 70 79% S56 15 mph 122° @ 1201 AM 77 69 96 79 30.18" 0 0 409
Coyanosa 2N  10:30 AM 71 65 80% SE67 40 mph 27° @ 0528 AM 82 64 100 45 30.22" 0 0.23 311
Crowell 1E  10:30 AM 76 69 80% SE45 10 mph 153° @ 0439 AM 76 70 89 71 30.18" 0 0 312
Dell City  10:30 AM 79 60 54% S24 25 mph 147° @ 0829 AM 79 68 71 40 30.25" 0 0 551
Denver City 7WNW  10:30 AM 65 58 82% N48 37 mph 342° @ 0115 AM 75 59 96 57 30.26" 0 0.97 684
Dimmitt 2NE  10:30 AM 69 58 70% SE912 37 mph 118° @ 0255 AM 69 58 99 70 30.28" 0 1.23 662
Dora NM 2SW  10:30 AM 69 60 75% E1014 31 mph 97° @ 0250 AM 69 57 100 75 30.31" 0 0.44 587
Dozier 3W  10:30 AM 77 61 58% N1315 17 mph 354° @ 0940 AM 77 73 72 58 30.21" 0 0 714
Floydada 2NNE  10:30 AM 68 62 81% NE1419 45 mph 328° @ 0110 AM 70 59 100 75 30.23" 0 1.37 387
Fluvanna 3WNW  10:30 AM 69 64 86% NE1113 28 mph 325° @ 0515 AM 74 64 99 65 30.19" 0 0.54 167
Fort Chadbourne  10:30 AM 77 68 75% S67 15 mph 97° @ 1232 AM 77 71 93 75 30.17" 0 0 429
Fort Lancaster  10:30 AM 78 64 63% E68 27 mph 15° @ 0817 AM 82 67 92 62 30.18" 0 0.09 252
Fort Lewis CO  10:30 AM 70 46 42% E711 20 mph 79° @ 0500 AM 70 53 48 19 30.44" 0 0 693
Fort McKavett  10:30 AM 78 67 70% W23 12 mph 100° @ 1213 AM 79 66 98 69 30.19" 0 0 293
Friona 2NE  10:30 AM 72 57 59% S1419 32 mph 135° @ 0240 AM 72 56 98 59 30.29" 0 0.32 682
Gail 2ESE  10:30 AM 67 66 99% N12 38 mph 345° @ 0400 AM 76 64 99 64 30.19" 0 1.08 178
Goodlett 3W  10:30 AM 76 61 62% W57 14 mph 192° @ 0400 AM 76 70 81 62 30.17" 0 0 296
Goodnight  10:30 AM 72 58 60% NW56 50 mph 188° @ 0248 AM 72 59 97 60 30.26" 0 0.38 718
Graham 5SSW  10:25 AM 66 64 98% E36 59 mph 313° @ 0250 AM 74 61 98 65 30.21" 0 0.70 195
Guadalupe Mtns Natl Park  10:30 AM 62 60 95% E68 17 mph 38° @ 0438 AM 73 61 95 49 30.38" 0 0 104
Guthrie 10WSW  10:30 AM 74 64 73% N69 14 mph 335° @ 0410 AM 74 66 92 68 30.19" 0 0.02 400
Hart 3N  10:30 AM 69 58 69% SE69 47 mph 18° @ 1215 AM 69 58 97 69 30.27" 0 1.14 726
Haskell 1NW  10:30 AM 76 67 80% SE68 13 mph 138° @ 0310 AM 76 71 97 78 30.16" 0 0 377
Hereford 2NW  10:30 AM 71 55 59% S1013 34 mph 149° @ 0215 AM 71 56 97 59 30.28" 0 0.27 709
Hobbs NM 5NW  10:30 AM 67 60 80% N67 29 mph 336° @ 0130 AM 75 60 100 57 30.29" 0 1.46 660
Jayton 1SSE  10:30 AM 74 65 77% NE811 14 mph 251° @ 0650 AM 75 67 93 67 30.18" 0 0 452
Junction 1SSW  10:30 AM 79 68 69% S56 9 mph 85° @ 0219 AM 80 68 95 68 30.17" 0 0 656
Knox City 3NW  10:30 AM 75 68 80% N24 14 mph 126° @ 0115 AM 75 71 89 68 30.18" 0 0.02 195
Lake Alan Henry 1NW  10:30 AM 69 66 91% E711 26 mph 323° @ 0453 AM 76 64 92 59 30.19" 0 0.71 242
Lamesa 2SE  10:30 AM 70 62 78% SW24 43 mph 13° @ 0305 AM 76 61 97 63 30.22" 0 1.04 437
Levelland 4S  10:30 AM 71 60 70% SE13 48 mph 351° @ 0140 AM 74 59 93 60 30.25" 0 1.26 673
Lomax 1SSE  10:30 AM 68 64 86% NE68 41 mph 358° @ 0424 AM 77 64 95 62 30.20" 0 0.77 192
Lubbock 3WNW TTU  10:30 AM 76 60 60% NE513 43 mph 9° @ 0145 AM 76 59 100 59 30.23" 0 1.26 650
McCamey 1SSW  10:30 AM 69 64 85% SW11 36 mph 9° @ 0612 AM 82 66 94 49 30.21" 0 0.14 126
McLean 1E  10:30 AM 75 59 59% N1216 43 mph 192° @ 0130 AM 75 63 93 59 30.22" 0 0 735
Memphis 1NE  10:30 AM 77 61 59% N1216 35 mph 199° @ 0350 AM 77 65 83 59 30.20" 0 0 635
Menard 2NW   10:30 AM 79 68 68% S23 7 mph 127° @ 0328 AM 80 66 98 68 30.18" 0 0 415
Mertzon 3NNE  10:30 AM 74 65 75% E12 15 mph 313° @ 0809 AM 75 66 95 72 30.17" 0 0.29 253
Morton 1ENE  10:30 AM 69 60 74% SW35 48 mph 353° @ 1210 AM 69 59 97 73 30.26" 0 1.94 620
Muleshoe 2SSW  10:30 AM 71 59 68% S68 36 mph 117° @ 0320 AM 71 58 99 68 30.27" 0 0.32 606
New Home  10:30 AM 73 60 64% SE35 57 mph 346° @ 0156 AM 74 59 97 64 30.23" 0 1.40 448
Northfield 1S  10:30 AM 75 62 66% N1013 22 mph 221° @ 0440 AM 75 65 93 66 30.20" 0 0 529
O'Donnell 1N  10:30 AM 70 60 74% NE56 61 mph 10° @ 0235 AM 74 60 100 62 30.21" 0 0.92 250
Olton 6S  10:30 AM 71 58 66% E79 42 mph 63° @ 0330 AM 71 59 94 66 30.25" 0 0.82 630
Paducah 10SW  10:30 AM 74 63 69% NW57 15 mph 308° @ 0345 AM 75 65 92 65 30.19" 0 0 308
Palo Duro Canyon SP Floor  10:30 AM 76 62 60% NE33 34 mph 148° @ 0301 AM 77 60 98 57 30.22" 0 0.52 669
Palo Duro Canyon State Park Rim  10:30 AM 75 56 52% S611 36 mph 160° @ 0203 AM 75 58 96 51 30.27" 0 0.36 714
Pampa 2E  10:30 AM 73 56 56% NW36 39 mph 150° @ 1240 AM 74 59 95 56 30.25" 0 0 658
Panhandle 1SSW  10:30 AM 72 58 61% W68 44 mph 167° @ 0131 AM 72 59 92 61 30.28" 0 0.07 713
Plains 3N  10:30 AM 68 60 79% N35 55 mph 314° @ 0100 AM 75 59 100 58 30.26" 0 1.05 574
Plainview 1S  10:30 AM 71 61 71% NE912 42 mph 345° @ 1230 AM 72 58 99 71 30.24" 0 1.63 591
Post 1NE  10:30 AM 67 64 92% NE1014 31 mph 309° @ 0400 AM 75 63 95 63 30.20" 0 0.93 125
Ralls 1SE  10:30 AM 69 60 74% NE1215 40 mph 334° @ 0140 AM 72 61 96 69 30.23" 0 1.10 204
Reese Center  10:30 AM 73 59 63% S36 55 mph 17° @ 0130 AM 73 57 100 63 30.23" 0 2.08 644
Roaring Springs 3N  10:30 AM 71 65 85% N1015 24 mph 343° @ 0200 AM 72 62 100 76 30.21" 0 0.38 350
San Angelo 7NW  10:30 AM 77 66 72% S25 15 mph 85° @ 1210 AM 77 69 90 69 30.16" 0 0.01 383
Seagraves 1SW  10:30 AM 68 62 82% NW58 52 mph 7° @ 0140 AM 76 60 98 60 30.24" 0 1.34 551
Seminole 2NNE  10:30 AM 69 62 79% NW69 49 mph 5° @ 0220 AM 76 61 96 56 30.24" 0 0.93 727
Seymour 3NW  10:30 AM 75 68 81% S47 11 mph 118° @ 0155 AM 75 71 87 71 30.18" 0 0 107
Sierra Blanca 1SSE  10:30 AM 71 60 69% SE1215 23 mph 106° @ 0822 AM 76 68 76 44 30.30" 0 0 283
Silverton 7ESE  10:30 AM 72 57 60% N1013 50 mph 308° @ 1220 AM 72 59 95 60 30.25" 0 1.32 611
Slaton 2NE  10:30 AM 69 66 91% E911 43 mph 7° @ 0210 AM 74 60 100 66 30.23" 0 1.10 318
Snyder 3E  10:25 AM 68 67 99% NE810 24 mph 320° @ 0620 AM 74 65 100 72 30.19" 0.01 0.13 129
Snyder 3SSW  09:00 AM 68 67 96% N89 24 mph 317° @ 0551 AM 75 65 97 68 30.21" 0 0.29 135
Spur 1W  10:30 AM 72 66 83% E69 28 mph 359° @ 0400 AM 74 64 96 65 30.19" 0 0.31 597
St. Lawrence 5SW  10:30 AM 69 64 86% E811 43 mph 4° @ 0540 AM 76 63 95 62 30.18" 0 0.51 228
Stamford 5ESE  10:30 AM 77 69 78% SE46 16 mph 145° @ 0212 AM 77 71 92 78 30.17" 0 0 520
Sterling City 4WSW  10:30 AM 77 61 58% NE68 24 mph 309° @ 0617 AM 77 67 93 56 30.18" 0 0 292
Stinnett 1NNW  10:30 AM 74 57 54% SW1214 21 mph 140° @ 1228 AM 74 61 90 53 30.26" 0 0 684
Sundown 8WSW  10:30 AM 71 60 68% S46 42 mph 332° @ 0105 AM 75 58 97 60 30.25" 0 1.34 673
Sweetwater 11SW   10:30 AM 76 66 73% N23 24 mph 140° @ 0257 AM 76 70 92 73 30.20" 0 0 306
Tahoka 3NNE  10:30 AM 70 63 79% E46 48 mph 335° @ 0214 AM 74 59 95 63 30.21" 0 1.04 255
Tarzan 2WNW  10:25 AM 70 65 83% NW79 49 mph 4° @ 0337 AM 77 61 98 60 30.21" 0 1.75 565
Tatum NM 2SW  10:30 AM 69 57 66% E35 39 mph 318° @ 1215 AM 70 58 92 66 30.29" 0 0.21 613
Throckmorton 1SW  10:30 AM 74 70 86% SW33 10 mph 172° @ 0926 AM 74 70 95 83 30.18" 0 0 142
Tulia 2ENE  10:30 AM 70 60 72% SE35 44 mph 122° @ 0405 AM 70 57 100 72 30.25" 0 0.93 555
Turkey 2WSW  10:30 AM 74 61 67% N1215 33 mph 327° @ 1255 AM 74 62 100 65 30.21" 0 0.44 601
Umbarger 3NNE  10:30 AM 72 59 64% S1315 50 mph 144° @ 0205 AM 72 57 96 61 30.28" 0 0.12 713
Vigo Park  10:30 AM 72 58 61% E45 44 mph 149° @ 0415 AM 73 57 99 60 30.26" 0 0.91 688
Wall 2E  10:30 AM 78 69 75% SW66 17 mph 101° @ 1203 AM 78 68 96 74 30.17" 0 0 723
Weinert 2NNE  10:30 AM 75 70 83% SE45 14 mph 130° @ 0129 AM 75 70 92 75 30.17" 0 0 210
Welch  10:30 AM 72 61 67% NW33 55 mph 8° @ 0226 AM 75 60 99 65 30.23" 0 1.45 610
White River Lake 6NW  10:25 AM 70 62 81% E57 34 mph 347° @ 0320 AM 73 62 96 67 30.21" 0 1.45 358
Wolfforth 6SSW  10:30 AM 73 60 66% S57 52 mph 2° @ 0150 AM 74 59 100 62 30.23" 0 1.96 480

West Texas Mesonet Home   Site Map/Menu  NWS Lubbock Soil Data  Daily Summary Page  24hr Precip  72hr Precip  Google Plot